Time;durP1;ratioP1;P1;durP2;ratioP2;P2;SDS_P1;SDS_P2;PMS_P1;PMS_P2;Temp;Humidity;BMP_temperature;BMP_pressure;BME280_temperature;BME280_humidity;BME280_pressure;Samples;Min_cycle;Max_cycle;Signal;HPM_P1;HPM_P2
2021/04/23 00:03:24;;;;;;;;;;;;;;;;;;;;;
2021/04/23 00:07:04;;;;;;;;;;;;;;;;;;;;;
2021/04/23 00:09:51;;;;;;;;;;;;;;;;;;;;;
2021/04/23 00:13:05;;;;;;;;;;;;;;;;;;;;;
2021/04/23 00:16:23;;;;;;;12.40;3.77;;;11.10;68.50;;;;;;5980728;24;20252;-92
2021/04/23 00:20:05;;;;;;;;;;;;;;;;;;;;;
2021/04/23 00:23:15;;;;;;;11.77;3.37;;;10.80;69.90;;;;;;6040306;23;20167;-93
2021/04/23 00:29:58;;;;;;;12.50;3.33;;;10.80;70.10;;;;;;6039482;23;20157;-93
2021/04/23 00:33:02;;;;;;;12.37;3.67;;;10.80;70.40;;;;;;6154871;23;20520;-93
2021/04/23 00:42:50;;;;;;;7.40;3.37;;;10.70;70.60;;;;;;6156605;23;20165;-93
2021/04/23 00:52:57;;;;;;;8.93;3.50;;;10.20;73.20;;;;;;6205917;23;20176;-93
2021/04/23 00:59:19;;;;;;;;;;;;;;;;;;;;;
2021/04/23 01:02:36;;;;;;;11.03;3.30;;;10.20;74.20;;;;;;6221007;23;20226;-93
2021/04/23 01:06:07;;;;;;;;;;;;;;;;;;;;;
2021/04/23 01:10:02;;;;;;;;;;;;;;;;;;;;;
2021/04/23 01:17:08;;;;;;;;;;;;;;;;;;;;;
2021/04/23 01:31:10;;;;;;;;;;;;;;;;;;;;;
2021/04/23 01:41:57;;;;;;;;;;;;;;;;;;;;;
2021/04/23 01:52:26;;;;;;;9.80;3.03;;;8.80;88.80;;;;;;5795446;24;20161;-92
2021/04/23 01:59:01;;;;;;;12.43;3.93;;;8.60;90.70;;;;;;5883900;24;20172;-93
2021/04/23 02:06:01;;;;;;;;;;;;;;;;;;;;;
2021/04/23 02:16:58;;;;;;;;;;;;;;;;;;;;;
2021/04/23 02:23:43;;;;;;;;;;;;;;;;;;;;;
2021/04/23 02:27:09;;;;;;;;;;;;;;;;;;;;;
2021/04/23 02:44:22;;;;;;;;;;;;;;;;;;;;;
2021/04/23 02:55:15;;;;;;;7.33;3.80;;;7.80;95.50;;;;;;5997287;23;20159;-93
2021/04/23 02:58:37;;;;;;;;;;;;;;;;;;;;;
2021/04/23 03:27:00;;;;;;;13.23;3.80;;;8.00;96.20;;;;;;5951087;23;20161;-93
2021/04/23 03:33:56;;;;;;;11.30;4.10;;;8.10;95.90;;;;;;5874271;24;20168;-93
2021/04/23 03:36:58;;;;;;;18.00;4.40;;;8.10;96.10;;;;;;5903770;24;20209;-93
2021/04/23 03:43:47;;;;;;;;;;;;;;;;;;;;;
2021/04/23 03:47:00;;;;;;;;;;;;;;;;;;;;;
2021/04/23 03:50:09;;;;;;;;;;;;;;;;;;;;;
2021/04/23 03:53:13;;;;;;;13.10;4.87;;;7.50;97.70;;;;;;5975210;23;20246;-93
2021/04/23 03:56:20;;;;;;;;;;;;;;;;;;;;;
2021/04/23 03:59:28;;;;;;;10.63;4.47;;;7.40;98.10;;;;;;5989941;23;20208;-93
2021/04/23 04:02:27;;;;;;;11.47;4.63;;;7.40;98.00;;;;;;6036440;23;20211;-92
2021/04/23 04:05:55;;;;;;;;;;;;;;;;;;;;;
2021/04/23 04:13:32;;;;;;;;;;;;;;;;;;;;;
2021/04/23 04:20:37;;;;;;;;;;;;;;;;;;;;;
2021/04/23 04:24:07;;;;;;;;;;;;;;;;;;;;;
2021/04/23 04:26:33;;;;;;;14.70;5.73;;;7.10;99.60;;;;;;6176551;23;20248;-91
2021/04/23 04:28:59;;;;;;;10.90;5.63;;;7.10;99.60;;;;;;6182943;23;20164;-91
2021/04/23 04:31:25;;;;;;;12.17;5.77;;;6.80;99.80;;;;;;6185479;23;20154;-91
2021/04/23 04:33:51;;;;;;;13.77;6.07;;;7.10;99.70;;;;;;6185035;23;20512;-91
2021/04/23 04:36:17;;;;;;;13.87;5.40;;;7.30;99.20;;;;;;6186327;23;20614;-91
2021/04/23 04:38:44;;;;;;;11.80;5.63;;;7.30;99.00;;;;;;6188798;23;20169;-92
2021/04/23 04:41:10;;;;;;;16.37;5.90;;;7.20;99.00;;;;;;6160998;23;20165;-92
2021/04/23 04:43:39;;;;;;;11.13;5.50;;;7.30;98.70;;;;;;6183759;23;20299;-92
2021/04/23 04:46:07;;;;;;;13.93;5.97;;;7.30;99.00;;;;;;6187947;23;20215;-92
2021/04/23 04:48:37;;;;;;;15.40;6.40;;;7.40;98.80;;;;;;6185606;23;20240;-91
2021/04/23 04:51:04;;;;;;;14.80;6.20;;;7.30;98.90;;;;;;6184418;23;20526;-92
2021/04/23 04:53:29;;;;;;;15.10;5.60;;;7.40;98.80;;;;;;6184301;23;20586;-92
2021/04/23 04:55:58;;;;;;;15.37;5.83;;;7.40;98.80;;;;;;6184599;23;20194;-91
2021/04/23 04:58:41;;;;;;;14.20;5.90;;;7.60;98.70;;;;;;6184273;23;20149;-92
2021/04/23 05:01:11;;;;;;;16.90;6.47;;;7.60;98.50;;;;;;6186241;23;20480;-92
2021/04/23 05:03:38;;;;;;;13.83;5.87;;;7.70;98.50;;;;;;6186861;23;20571;-91
2021/04/23 05:06:08;;;;;;;16.10;6.60;;;7.60;98.40;;;;;;6186994;23;20183;-91
2021/04/23 05:08:35;;;;;;;14.33;7.17;;;7.50;98.80;;;;;;6186964;23;20206;-91
2021/04/23 05:11:01;;;;;;;20.47;7.30;;;7.70;98.60;;;;;;6185698;23;20204;-92
2021/04/23 05:13:27;;;;;;;16.53;6.73;;;7.60;98.50;;;;;;6187105;23;20246;-92
2021/04/23 05:15:53;;;;;;;13.93;6.37;;;7.70;98.60;;;;;;6185417;23;20209;-91
2021/04/23 05:18:21;;;;;;;14.03;6.37;;;7.60;98.80;;;;;;6185508;23;20264;-92
2021/04/23 05:20:47;;;;;;;19.77;6.67;;;7.80;98.40;;;;;;6187063;23;20240;-91
2021/04/23 05:23:13;;;;;;;9.63;6.00;;;7.90;98.40;;;;;;6186617;23;20187;-90
2021/04/23 05:25:39;;;;;;;14.97;6.13;;;7.90;98.50;;;;;;6186590;23;20212;-91
2021/04/23 05:28:06;;;;;;;17.47;6.93;;;7.80;98.60;;;;;;6185802;23;20149;-91
2021/04/23 05:30:35;;;;;;;13.43;6.83;;;7.70;99.00;;;;;;6186001;23;20243;-91
2021/04/23 05:33:04;;;;;;;18.97;6.70;;;7.80;99.10;;;;;;6185797;23;20154;-91
2021/04/23 05:35:30;;;;;;;18.77;7.23;;;7.90;98.60;;;;;;6185505;23;20670;-91
2021/04/23 05:37:58;;;;;;;14.07;6.33;;;8.20;98.00;;;;;;6186036;23;20567;-91
2021/04/23 05:40:43;;;;;;;13.57;6.43;;;8.40;97.40;;;;;;6202487;23;20152;-89
2021/04/23 05:43:09;;;;;;;15.83;6.50;;;8.40;97.10;;;;;;6202248;23;20306;-91
2021/04/23 05:45:36;;;;;;;14.23;6.03;;;8.50;96.80;;;;;;6192746;23;20224;-91
2021/04/23 05:48:02;;;;;;;15.93;6.70;;;8.50;96.80;;;;;;6185450;23;20145;-91
2021/04/23 05:50:28;;;;;;;13.83;6.37;;;8.50;96.80;;;;;;6185621;23;20494;-91
2021/04/23 05:52:54;;;;;;;18.30;6.50;;;8.40;97.30;;;;;;6186026;23;20145;-92
2021/04/23 05:55:25;;;;;;;20.80;6.50;;;8.40;97.30;;;;;;6186084;23;20172;-91
2021/04/23 05:57:52;;;;;;;18.27;7.47;;;8.50;97.10;;;;;;6186049;23;20540;-91
2021/04/23 06:00:19;;;;;;;19.30;6.67;;;8.60;97.00;;;;;;6186138;23;20153;-91
2021/04/23 06:02:47;;;;;;;16.00;7.80;;;8.70;96.60;;;;;;6185712;23;20160;-91
2021/04/23 06:05:14;;;;;;;16.23;6.77;;;8.70;96.50;;;;;;6185742;23;20144;-91
2021/04/23 06:07:40;;;;;;;17.83;6.83;;;8.70;96.60;;;;;;6186385;23;20241;-88
2021/04/23 06:10:08;;;;;;;17.77;7.43;;;8.80;96.30;;;;;;6185407;23;20184;-91
2021/04/23 06:12:34;;;;;;;19.67;6.90;;;8.80;95.80;;;;;;6185968;23;20559;-91
2021/04/23 06:15:00;;;;;;;19.13;6.73;;;8.70;96.20;;;;;;6186003;23;20188;-92
2021/04/23 06:17:26;;;;;;;16.63;6.23;;;8.70;96.50;;;;;;6185774;23;20188;-92
2021/04/23 06:19:52;;;;;;;15.20;6.90;;;8.80;96.10;;;;;;6185871;23;20150;-91
2021/04/23 06:22:18;;;;;;;15.67;6.13;;;8.80;95.70;;;;;;6186916;23;20207;-91
2021/04/23 06:27:28;;;;;;;21.10;6.13;;;8.80;95.60;;;;;;6228715;22;20305;-91
2021/04/23 07:27:56;;;;;;;13.77;5.57;;;9.90;91.60;;;;;;6247904;23;20176;-90
2021/04/23 07:30:50;;;;;;;12.97;5.13;;;10.00;91.20;;;;;;6197423;23;20643;-93
2021/04/23 07:36:17;;;;;;;15.03;4.97;;;10.00;90.90;;;;;;6247056;23;20233;-90
2021/04/23 07:42:45;;;;;;;13.20;4.43;;;10.10;90.60;;;;;;6244807;23;20234;-91
2021/04/23 08:32:11;;;;;;;9.83;3.30;;;11.40;83.80;;;;;;6247176;22;20525;-91
2021/04/23 08:34:42;;;;;;;11.77;3.83;;;11.40;84.10;;;;;;6215404;23;20151;-92
2021/04/23 08:37:08;;;;;;;7.60;3.47;;;11.50;83.00;;;;;;6217159;23;20182;-91
2021/04/23 08:39:37;;;;;;;9.70;3.07;;;11.50;82.70;;;;;;6216977;23;20159;-92
2021/04/23 08:42:11;;;;;;;8.80;4.10;;;11.60;81.60;;;;;;6216616;23;20251;-91
2021/04/23 08:44:37;;;;;;;10.97;3.83;;;11.50;81.60;;;;;;6216782;23;20158;-91
2021/04/23 08:47:07;;;;;;;8.00;3.20;;;11.70;80.80;;;;;;6217227;23;20155;-91
2021/04/23 08:49:36;;;;;;;12.47;3.70;;;11.70;80.40;;;;;;6215764;23;20139;-91
2021/04/23 08:52:03;;;;;;;9.03;3.30;;;11.70;80.10;;;;;;6217026;23;20159;-91
2021/04/23 08:54:32;;;;;;;12.13;3.60;;;11.90;78.10;;;;;;6216824;23;20183;-91
2021/04/23 08:56:57;;;;;;;13.47;4.10;;;11.90;77.60;;;;;;6216026;23;20182;-91
2021/04/23 08:59:23;;;;;;;12.83;3.53;;;11.80;77.70;;;;;;6218492;23;20238;-92
2021/04/23 09:01:49;;;;;;;9.70;4.03;;;11.80;79.30;;;;;;6221549;23;20535;-91
2021/04/23 09:04:14;;;;;;;13.60;3.73;;;11.90;79.70;;;;;;6222990;23;20162;-92
2021/04/23 09:06:40;;;;;;;12.93;3.67;;;11.80;79.70;;;;;;6226643;23;20154;-91
2021/04/23 09:09:14;;;;;;;8.87;4.20;;;11.90;77.90;;;;;;6222787;23;20170;-93
2021/04/23 09:11:43;;;;;;;8.53;3.63;;;12.00;78.10;;;;;;6222125;23;20178;-93
2021/04/23 09:14:15;;;;;;;12.27;3.60;;;12.00;78.70;;;;;;6222230;23;20150;-90
2021/04/23 10:26:17;;;;;;;12.97;3.90;;;12.90;66.40;;;;;;6222402;22;20207;-91
2021/04/23 10:28:43;;;;;;;9.03;3.70;;;13.10;64.50;;;;;;6190924;23;20707;-90
2021/04/23 10:31:09;;;;;;;8.60;3.43;;;13.00;65.40;;;;;;6190652;23;20148;-88
2021/04/23 10:33:35;;;;;;;10.13;4.17;;;13.10;66.20;;;;;;6191818;23;20206;-88
2021/04/23 10:36:00;;;;;;;9.83;3.60;;;13.20;65.80;;;;;;6192481;23;20188;-90
2021/04/23 10:38:31;;;;;;;10.17;4.00;;;13.30;67.20;;;;;;6192071;23;20174;-88
2021/04/23 10:41:00;;;;;;;9.40;4.33;;;13.30;65.20;;;;;;6191641;23;20166;-91
2021/04/23 10:43:26;;;;;;;9.57;4.27;;;13.40;65.10;;;;;;6190899;23;20148;-91
2021/04/23 10:45:58;;;;;;;10.13;4.50;;;13.50;65.90;;;;;;6190047;23;20149;-90
2021/04/23 10:48:30;;;;;;;9.80;4.10;;;13.50;65.00;;;;;;6191490;23;20156;-88
2021/04/23 10:51:02;;;;;;;12.60;4.70;;;13.60;66.40;;;;;;6193489;23;20148;-89
2021/04/23 10:53:32;;;;;;;8.83;3.80;;;13.50;65.40;;;;;;6193138;23;20151;-88
2021/04/23 10:56:03;;;;;;;11.07;3.77;;;13.50;64.90;;;;;;6191020;23;20267;-88
2021/04/23 10:58:29;;;;;;;9.03;3.60;;;13.60;63.00;;;;;;6191834;23;20148;-89
2021/04/23 11:53:29;;;;;;;13.77;3.80;;;27.50;35.80;;;;;;6228510;22;20211;-91
2021/04/23 11:55:54;;;;;;;8.90;3.63;;;28.00;35.20;;;;;;6188253;23;20211;-91
2021/04/23 11:58:22;;;;;;;6.97;3.38;;;28.40;34.50;;;;;;6188105;23;20159;-92
2021/04/23 12:00:56;;;;;;;9.00;3.75;;;28.80;34.20;;;;;;6189860;23;20156;-90
2021/04/23 12:03:22;;;;;;;8.85;3.42;;;29.10;33.70;;;;;;6189466;23;20151;-90
2021/04/23 12:05:49;;;;;;;6.50;3.20;;;29.00;33.70;;;;;;6189278;23;20530;-91
2021/04/23 12:08:27;;;;;;;9.07;3.78;;;29.70;33.00;;;;;;6190317;23;20144;-91
2021/04/23 12:11:01;;;;;;;8.23;3.08;;;29.90;31.40;;;;;;6191930;23;20186;-90
2021/04/23 12:13:40;;;;;;;4.60;3.25;;;29.60;31.80;;;;;;6191775;23;20187;-91
2021/04/23 12:16:09;;;;;;;5.82;3.30;;;30.00;32.20;;;;;;6192069;23;20179;-90
2021/04/23 12:18:46;;;;;;;13.38;3.70;;;30.80;32.00;;;;;;6192340;23;20147;-90
2021/04/23 12:21:13;;;;;;;7.53;3.97;;;30.50;31.40;;;;;;6191506;23;20553;-91
2021/04/23 12:23:39;;;;;;;4.50;3.10;;;30.80;31.60;;;;;;6192123;23;20152;-91
2021/04/23 12:26:10;;;;;;;8.63;4.05;;;31.10;30.80;;;;;;6191668;23;20428;-91
2021/04/23 12:28:48;;;;;;;6.53;3.72;;;31.30;31.50;;;;;;6190932;23;20156;-91
2021/04/23 12:31:22;;;;;;;7.03;4.35;;;32.00;31.40;;;;;;6191931;23;20148;-91
2021/04/23 12:33:50;;;;;;;7.45;3.78;;;32.10;31.20;;;;;;6191459;23;20159;-91
2021/04/23 12:36:23;;;;;;;12.15;4.90;;;31.90;31.70;;;;;;6191439;23;20222;-90
2021/04/23 12:38:53;;;;;;;8.48;4.75;;;32.20;31.50;;;;;;6191662;23;20172;-91
2021/04/23 12:41:29;;;;;;;6.55;4.13;;;32.40;31.10;;;;;;6191724;23;20163;-91
2021/04/23 12:43:58;;;;;;;11.00;4.68;;;32.80;30.20;;;;;;6191746;23;20151;-91
2021/04/23 12:46:37;;;;;;;9.93;4.50;;;32.60;30.40;;;;;;6191890;23;20190;-91
2021/04/23 12:49:11;;;;;;;5.75;4.28;;;32.70;29.90;;;;;;6191117;23;20584;-90
2021/04/23 12:51:42;;;;;;;7.00;4.03;;;32.30;30.10;;;;;;6191613;23;20159;-91
2021/04/23 12:54:08;;;;;;;8.10;4.38;;;32.30;30.30;;;;;;6205640;23;20213;-91
2021/04/23 12:56:35;;;;;;;7.00;4.68;;;32.80;30.30;;;;;;6215486;23;20290;-91
2021/04/23 12:59:01;;;;;;;10.95;5.10;;;33.60;29.90;;;;;;6216381;23;20226;-92
2021/04/23 13:01:27;;;;;;;7.65;5.20;;;34.00;29.60;;;;;;6216374;23;20159;-91
2021/04/23 13:04:12;;;;;;;9.57;4.70;;;33.90;29.60;;;;;;6216722;23;20144;-91
2021/04/23 13:06:39;;;;;;;12.20;5.28;;;33.90;29.50;;;;;;6217730;23;20152;-92
2021/04/23 13:09:11;;;;;;;8.50;5.20;;;33.60;29.60;;;;;;6216577;23;20577;-91
2021/04/23 13:11:41;;;;;;;14.63;5.10;;;33.60;29.80;;;;;;6216764;23;20155;-92
2021/04/23 13:14:15;;;;;;;10.23;4.90;;;33.70;30.00;;;;;;6216879;23;20160;-93
2021/04/23 13:16:57;;;;;;;9.90;4.75;;;34.40;29.70;;;;;;6216738;23;20214;-92
2021/04/23 13:19:36;;;;;;;8.25;5.07;;;34.00;29.80;;;;;;6216481;23;20156;-93
2021/04/23 13:22:22;;;;;;;10.02;5.65;;;33.50;30.20;;;;;;6216598;23;20194;-93
2021/04/23 13:24:49;;;;;;;11.15;5.85;;;34.10;29.70;;;;;;6216198;23;20531;-92
2021/04/23 13:27:32;;;;;;;8.32;5.03;;;34.00;29.90;;;;;;6216396;23;20159;-92
2021/04/23 13:29:58;;;;;;;8.50;5.78;;;33.90;29.90;;;;;;6216711;23;20155;-92
2021/04/23 13:32:26;;;;;;;15.85;5.70;;;34.00;29.90;;;;;;6216652;23;20148;-92
2021/04/23 13:34:57;;;;;;;10.35;5.60;;;34.20;30.00;;;;;;6216236;23;20155;-92
2021/04/23 13:37:33;;;;;;;7.35;5.68;;;34.40;29.70;;;;;;6216866;23;20188;-93
2021/04/23 13:40:09;;;;;;;7.72;5.80;;;34.60;29.50;;;;;;6216222;23;20479;-93
2021/04/23 13:42:48;;;;;;;6.63;5.07;;;34.80;29.20;;;;;;6217198;23;20148;-93
2021/04/23 13:45:22;;;;;;;8.70;5.50;;;34.90;29.40;;;;;;6217937;23;20156;-93
2021/04/23 13:47:57;;;;;;;9.15;5.10;;;35.30;29.80;;;;;;6225705;23;20171;-93
2021/04/23 13:50:26;;;;;;;6.88;5.07;;;35.50;29.40;;;;;;6222020;23;20151;-93
2021/04/23 13:52:52;;;;;;;12.98;5.95;;;35.40;29.10;;;;;;6218914;23;20194;-92
2021/04/23 13:55:19;;;;;;;8.43;5.45;;;35.40;29.40;;;;;;6193736;23;20155;-92
2021/04/23 13:58:00;;;;;;;7.68;5.22;;;35.20;29.40;;;;;;6191321;23;20184;-93
2021/04/23 14:00:25;;;;;;;9.63;5.20;;;35.30;29.10;;;;;;6191341;23;20187;-91
2021/04/23 14:02:59;;;;;;;7.75;5.18;;;35.60;29.10;;;;;;6191324;23;20172;-93
2021/04/23 14:05:25;;;;;;;13.77;5.97;;;35.60;29.00;;;;;;6191656;23;20218;-93
2021/04/23 14:07:51;;;;;;;9.45;5.63;;;35.40;29.40;;;;;;6190943;23;20151;-93
2021/04/23 14:10:17;;;;;;;9.20;5.53;;;35.10;29.20;;;;;;6190971;23;20148;-93
2021/04/23 14:12:42;;;;;;;9.00;5.15;;;35.00;29.30;;;;;;6191070;23;20489;-93
2021/04/23 14:15:08;;;;;;;10.60;5.95;;;35.40;29.10;;;;;;6191333;23;20152;-93
2021/04/23 14:17:34;;;;;;;8.18;4.97;;;35.50;29.10;;;;;;6191059;23;20212;-93
2021/04/23 14:20:01;;;;;;;8.93;5.55;;;35.50;29.20;;;;;;6191411;23;20152;-93
2021/04/23 14:22:26;;;;;;;6.10;4.78;;;35.80;29.40;;;;;;6190883;23;20573;-93
2021/04/23 14:24:52;;;;;;;11.82;4.97;;;35.90;29.10;;;;;;6191391;23;20159;-93
2021/04/23 14:27:19;;;;;;;10.05;5.75;;;35.90;29.10;;;;;;6190911;23;20223;-93
2021/04/23 14:29:45;;;;;;;7.05;5.47;;;35.90;29.10;;;;;;6190817;23;20166;-93
2021/04/23 14:32:11;;;;;;;11.57;5.43;;;36.10;28.60;;;;;;6190819;23;20152;-93
2021/04/23 14:34:37;;;;;;;7.70;5.45;;;35.90;28.90;;;;;;6191135;23;20183;-93
2021/04/23 14:37:03;;;;;;;7.60;5.28;;;36.10;28.90;;;;;;6190277;23;20189;-92
2021/04/23 14:39:29;;;;;;;7.88;5.25;;;36.20;28.40;;;;;;6191138;23;20171;-92
2021/04/23 14:41:55;;;;;;;8.75;5.45;;;36.30;28.50;;;;;;6190962;23;20240;-93
2021/04/23 14:44:21;;;;;;;7.88;5.47;;;36.20;28.70;;;;;;6191177;23;20183;-92
2021/04/23 14:46:51;;;;;;;7.47;4.93;;;36.10;28.50;;;;;;6190855;23;20243;-93
2021/04/23 14:49:17;;;;;;;9.68;5.70;;;35.70;28.70;;;;;;6190950;23;20593;-92
2021/04/23 14:51:43;;;;;;;7.40;5.35;;;35.90;28.30;;;;;;6190571;23;20503;-92
2021/04/23 14:54:10;;;;;;;10.48;5.43;;;35.90;28.30;;;;;;6204582;23;20256;-92
2021/04/23 14:56:35;;;;;;;7.00;5.30;;;36.20;28.30;;;;;;6215916;23;20176;-92
2021/04/23 14:59:02;;;;;;;11.35;5.18;;;36.00;28.40;;;;;;6215643;23;20155;-92
2021/04/23 15:01:27;;;;;;;14.10;5.90;;;35.90;28.50;;;;;;6215619;23;20159;-92
2021/04/23 15:03:54;;;;;;;10.73;5.85;;;35.60;28.80;;;;;;6215799;23;20155;-92
2021/04/23 15:06:20;;;;;;;7.75;5.53;;;35.50;28.80;;;;;;6215306;23;20589;-92
2021/04/23 15:08:48;;;;;;;12.55;5.40;;;35.40;28.50;;;;;;6215503;23;20156;-92
2021/04/23 15:11:15;;;;;;;9.98;5.60;;;35.60;28.70;;;;;;6215054;23;20152;-92
2021/04/23 15:13:41;;;;;;;9.63;6.03;;;35.60;28.70;;;;;;6215465;23;20151;-92
2021/04/23 15:16:08;;;;;;;8.57;5.28;;;35.70;28.50;;;;;;6215530;23;20237;-93
2021/04/23 15:18:33;;;;;;;9.10;5.28;;;35.60;28.70;;;;;;6215930;23;20227;-93
2021/04/23 15:20:59;;;;;;;8.77;5.18;;;35.60;29.00;;;;;;6215827;23;20582;-93
2021/04/23 15:23:25;;;;;;;7.35;5.15;;;35.80;29.10;;;;;;6216001;23;20184;-92
2021/04/23 15:25:53;;;;;;;10.65;5.57;;;35.80;28.80;;;;;;6215746;23;20187;-92
2021/04/23 15:28:20;;;;;;;10.13;5.35;;;35.50;28.70;;;;;;6215778;23;20159;-92
2021/04/23 15:30:48;;;;;;;7.78;4.97;;;35.30;28.70;;;;;;6215513;23;20163;-92
2021/04/23 15:33:17;;;;;;;8.95;5.30;;;34.90;29.10;;;;;;6215772;23;20589;-91
2021/04/23 15:35:44;;;;;;;10.57;5.68;;;34.40;29.00;;;;;;6215992;23;20199;-92
2021/04/23 15:38:11;;;;;;;8.77;5.90;;;34.00;28.90;;;;;;6215450;23;20213;-90
2021/04/23 15:40:38;;;;;;;11.73;5.72;;;33.90;29.20;;;;;;6215284;23;20156;-91
2021/04/23 15:43:05;;;;;;;8.80;4.90;;;33.60;29.30;;;;;;6190388;23;20175;-92
2021/04/23 15:45:37;;;;;;;8.10;4.90;;;33.50;29.50;;;;;;6216106;23;20189;-92
2021/04/23 15:48:05;;;;;;;11.13;4.78;;;33.50;29.60;;;;;;6214776;23;20159;-92
2021/04/23 15:50:34;;;;;;;7.75;4.63;;;33.70;29.10;;;;;;6215279;23;20654;-92
2021/04/23 15:53:00;;;;;;;9.73;4.70;;;33.80;29.00;;;;;;6215104;23;20242;-91
2021/04/23 15:55:26;;;;;;;10.18;4.80;;;33.90;29.20;;;;;;6190553;23;20213;-92
2021/04/23 15:57:53;;;;;;;9.05;5.13;;;34.00;29.00;;;;;;6190244;23;20194;-92
2021/04/23 16:00:24;;;;;;;7.00;5.15;;;34.20;28.70;;;;;;6191359;23;20174;-92
2021/04/23 16:02:50;;;;;;;10.77;4.95;;;34.10;28.90;;;;;;6190825;23;20152;-92
2021/04/23 16:05:16;;;;;;;9.80;5.80;;;34.00;29.00;;;;;;6190743;23;20151;-92
2021/04/23 16:07:42;;;;;;;9.93;5.32;;;33.70;29.00;;;;;;6190493;23;20513;-92
2021/04/23 16:10:09;;;;;;;8.80;5.13;;;33.60;29.00;;;;;;6190714;23;20164;-92
2021/04/23 16:12:36;;;;;;;9.70;4.63;;;33.30;29.00;;;;;;6190460;23;20151;-92
2021/04/23 16:15:03;;;;;;;6.30;4.43;;;33.10;29.00;;;;;;6191281;23;20636;-92
2021/04/23 16:17:31;;;;;;;6.28;4.32;;;32.70;29.10;;;;;;6191999;23;20194;-92
2021/04/23 16:19:57;;;;;;;8.05;4.50;;;32.70;29.20;;;;;;6218116;22;20132;-92
2021/04/23 16:22:24;;;;;;;7.47;4.00;;;32.50;29.00;;;;;;6217616;22;20160;-91
2021/04/23 16:24:49;;;;;;;9.32;4.88;;;31.90;29.40;;;;;;6215072;23;20188;-91
2021/04/23 16:27:15;;;;;;;14.55;5.80;;;31.60;29.60;;;;;;6197516;23;20195;-91
2021/04/23 16:29:41;;;;;;;9.45;5.30;;;31.40;29.80;;;;;;6193158;23;20147;-92
2021/04/23 16:32:07;;;;;;;10.37;5.30;;;31.40;29.90;;;;;;6191606;23;20159;-91
2021/04/23 16:34:32;;;;;;;7.57;5.00;;;31.00;30.40;;;;;;6193381;23;20160;-92
2021/04/23 16:36:59;;;;;;;8.77;4.80;;;30.90;30.00;;;;;;6203998;23;20625;-91
2021/04/23 16:39:25;;;;;;;7.83;5.13;;;31.00;30.00;;;;;;6194169;23;20176;-91
2021/04/23 16:41:51;;;;;;;11.75;4.70;;;31.00;29.90;;;;;;6190358;23;20531;-91
2021/04/23 16:44:17;;;;;;;5.63;4.18;;;31.20;29.90;;;;;;6190523;23;20144;-91
2021/04/23 16:46:43;;;;;;;6.13;4.68;;;31.10;30.00;;;;;;6190588;23;20479;-92
2021/04/23 16:49:09;;;;;;;6.80;4.22;;;31.10;29.90;;;;;;6190481;23;20151;-92
2021/04/23 16:51:35;;;;;;;8.25;4.20;;;31.00;29.80;;;;;;6190545;23;20144;-91
2021/04/23 16:54:01;;;;;;;7.17;4.57;;;30.90;29.80;;;;;;6202611;23;20164;-91
2021/04/23 16:56:27;;;;;;;9.07;4.30;;;30.80;29.80;;;;;;6216971;23;20182;-91
2021/04/23 16:58:52;;;;;;;8.70;4.37;;;30.30;30.10;;;;;;6217019;23;20175;-88
2021/04/23 17:01:18;;;;;;;7.60;4.67;;;30.00;30.60;;;;;;6216106;23;20230;-91
2021/04/23 17:03:45;;;;;;;11.30;4.90;;;30.00;30.70;;;;;;6216750;23;20589;-91
2021/04/23 17:06:10;;;;;;;8.93;4.70;;;29.70;31.10;;;;;;6216375;23;20570;-91
2021/04/23 17:08:36;;;;;;;9.37;5.43;;;29.60;31.70;;;;;;6216650;23;20147;-91
2021/04/23 17:11:03;;;;;;;10.10;4.93;;;29.40;31.60;;;;;;6217521;23;20152;-91
2021/04/23 17:13:28;;;;;;;10.10;5.47;;;29.40;31.90;;;;;;6220032;23;20147;-91
2021/04/23 17:15:55;;;;;;;8.70;5.30;;;29.30;31.50;;;;;;6216959;23;20144;-91
2021/04/23 17:18:21;;;;;;;11.10;4.80;;;29.20;31.50;;;;;;6216467;23;20378;-90
2021/04/23 17:20:47;;;;;;;8.73;4.90;;;29.20;31.80;;;;;;6217280;23;20171;-91
2021/04/23 17:23:13;;;;;;;8.60;4.80;;;29.00;32.00;;;;;;6216769;23;20168;-90
2021/04/23 17:25:38;;;;;;;10.83;4.90;;;29.00;32.30;;;;;;6218346;23;20151;-91
2021/04/23 17:28:05;;;;;;;7.20;4.80;;;28.70;32.50;;;;;;6216609;23;20144;-91
2021/04/23 17:30:31;;;;;;;7.77;4.97;;;28.70;32.20;;;;;;6217227;23;20487;-91
2021/04/23 17:32:57;;;;;;;8.77;4.80;;;28.60;32.20;;;;;;6217726;23;20144;-91
2021/04/23 17:35:23;;;;;;;9.70;5.00;;;28.40;32.50;;;;;;6216979;23;20172;-91
2021/04/23 17:37:49;;;;;;;8.07;4.77;;;28.20;32.60;;;;;;6216373;23;20202;-91
2021/04/23 17:40:15;;;;;;;7.87;4.67;;;28.20;32.40;;;;;;6215928;23;20156;-90
2021/04/23 17:42:41;;;;;;;10.73;5.47;;;27.80;32.40;;;;;;6216286;23;20201;-91
2021/04/23 17:45:09;;;;;;;6.70;4.47;;;27.50;32.60;;;;;;6215998;23;20230;-91
2021/04/23 17:47:38;;;;;;;9.40;4.43;;;27.30;32.60;;;;;;6215709;23;20584;-92
2021/04/23 17:50:06;;;;;;;10.20;4.80;;;27.00;32.70;;;;;;6216094;23;20167;-90
2021/04/23 17:52:32;;;;;;;8.73;4.90;;;26.80;33.50;;;;;;6218059;23;20158;-91
2021/04/23 17:54:58;;;;;;;9.03;4.83;;;26.70;33.70;;;;;;6217926;23;20171;-91
2021/04/23 17:57:24;;;;;;;13.13;4.63;;;26.40;34.00;;;;;;6217532;23;20183;-91
2021/04/23 17:59:49;;;;;;;9.70;5.60;;;26.00;34.50;;;;;;6217153;23;20150;-90
2021/04/23 18:02:15;;;;;;;11.40;5.50;;;25.50;35.10;;;;;;6217231;23;20152;-91
2021/04/23 18:04:41;;;;;;;9.77;4.50;;;25.00;35.40;;;;;;6216512;23;20140;-90
2021/04/23 18:07:06;;;;;;;9.80;5.33;;;24.50;35.90;;;;;;6215835;23;20151;-90
2021/04/23 18:09:32;;;;;;;12.13;5.63;;;23.90;36.80;;;;;;6215870;23;20144;-91
2021/04/23 18:11:58;;;;;;;8.83;5.57;;;23.70;36.90;;;;;;6215823;23;20143;-90
2021/04/23 18:14:23;;;;;;;12.87;5.23;;;23.50;37.70;;;;;;6215992;23;20148;-91
2021/04/23 18:16:49;;;;;;;13.67;4.90;;;23.20;37.30;;;;;;6216389;23;20179;-91
2021/04/23 18:19:15;;;;;;;9.93;5.63;;;23.00;37.70;;;;;;6216345;23;20230;-91
2021/04/23 18:21:40;;;;;;;10.70;5.70;;;23.00;37.60;;;;;;6216430;23;20511;-91
2021/04/23 18:24:07;;;;;;;11.80;5.50;;;22.80;37.80;;;;;;6215235;23;20190;-91
2021/04/23 18:26:33;;;;;;;12.20;5.40;;;22.40;38.40;;;;;;6215682;23;20142;-90
2021/04/23 18:28:59;;;;;;;12.50;5.17;;;22.20;38.80;;;;;;6215450;23;20155;-91
2021/04/23 18:31:25;;;;;;;11.60;5.17;;;22.10;39.10;;;;;;6215201;23;20492;-91
2021/04/23 18:33:51;;;;;;;12.57;5.60;;;21.90;39.10;;;;;;6217640;23;20157;-90
2021/04/23 18:36:17;;;;;;;8.63;5.47;;;21.80;39.30;;;;;;6217432;23;20182;-90
2021/04/23 18:38:43;;;;;;;11.60;5.13;;;21.70;40.10;;;;;;6216765;23;20236;-90
2021/04/23 18:41:10;;;;;;;13.50;5.37;;;21.60;39.80;;;;;;6216389;23;20188;-90
2021/04/23 18:43:37;;;;;;;10.50;5.50;;;21.40;40.20;;;;;;6215729;23;20487;-90
2021/04/23 18:46:03;;;;;;;9.07;5.10;;;21.10;40.50;;;;;;6215523;23;20153;-90
2021/04/23 18:48:29;;;;;;;10.67;5.07;;;21.10;40.70;;;;;;6215201;23;20145;-90
2021/04/23 18:50:56;;;;;;;12.67;5.10;;;21.00;40.80;;;;;;6215493;23;20174;-90
2021/04/23 18:53:21;;;;;;;10.63;5.30;;;20.90;40.90;;;;;;6215477;23;20168;-90
2021/04/23 18:55:48;;;;;;;10.27;5.70;;;20.70;41.10;;;;;;6215036;23;20153;-91
2021/04/23 18:58:14;;;;;;;9.07;5.53;;;20.60;41.10;;;;;;6215140;23;20144;-90
2021/04/23 19:00:39;;;;;;;12.80;5.43;;;20.50;41.80;;;;;;6215222;23;20180;-91
2021/04/23 19:03:06;;;;;;;12.03;5.13;;;20.50;41.90;;;;;;6216563;23;20482;-90
2021/04/23 19:05:33;;;;;;;9.83;4.97;;;20.70;40.80;;;;;;6217357;23;20153;-89
2021/04/23 19:07:59;;;;;;;8.43;5.00;;;20.60;41.10;;;;;;6239785;23;20145;-90
2021/04/23 19:10:25;;;;;;;11.50;5.00;;;20.30;41.50;;;;;;6240670;23;20136;-90
2021/04/23 19:12:52;;;;;;;10.27;5.03;;;20.30;40.80;;;;;;6241715;23;20145;-90
2021/04/23 19:15:20;;;;;;;10.03;4.60;;;20.30;40.90;;;;;;6224627;23;20152;-90
2021/04/23 19:17:48;;;;;;;9.47;4.20;;;20.30;40.60;;;;;;6219291;23;20226;-91
2021/04/23 19:20:17;;;;;;;7.53;4.73;;;20.10;40.90;;;;;;6217859;23;20144;-90
2021/04/23 19:22:44;;;;;;;12.60;4.67;;;19.80;41.40;;;;;;6215482;23;20149;-91
2021/04/23 19:25:10;;;;;;;18.77;6.33;;;19.80;40.90;;;;;;6216565;23;20593;-90
2021/04/23 19:27:39;;;;;;;12.73;5.13;;;19.80;41.20;;;;;;6215202;23;20534;-90
2021/04/23 19:30:08;;;;;;;8.47;4.60;;;19.40;41.70;;;;;;6216117;23;20148;-90
2021/04/23 19:32:34;;;;;;;7.37;4.33;;;19.30;41.90;;;;;;6191292;23;20155;-90
2021/04/23 19:35:00;;;;;;;8.87;4.70;;;19.20;41.70;;;;;;6216947;23;20152;-89
2021/04/23 19:37:30;;;;;;;6.93;4.27;;;19.10;42.10;;;;;;6215254;23;20190;-90
2021/04/23 19:39:56;;;;;;;9.57;4.73;;;18.80;42.60;;;;;;6215493;23;20248;-90
2021/04/23 19:42:21;;;;;;;11.40;4.73;;;18.90;42.80;;;;;;6215911;23;20148;-89
2021/04/23 19:44:47;;;;;;;9.10;4.70;;;19.00;42.20;;;;;;6216406;23;20141;-90
2021/04/23 19:47:13;;;;;;;11.87;4.63;;;19.00;42.50;;;;;;6215580;23;20210;-90
2021/04/23 19:49:41;;;;;;;6.97;4.30;;;18.90;42.60;;;;;;6214872;23;20152;-90
2021/04/23 19:52:06;;;;;;;7.77;4.23;;;18.70;42.90;;;;;;6215835;23;20171;-90
2021/04/23 19:54:32;;;;;;;10.03;5.13;;;18.60;43.40;;;;;;6215640;23;20608;-90
2021/04/23 19:56:58;;;;;;;7.60;4.37;;;18.50;43.30;;;;;;6215846;23;20260;-90